Main page
Satellite images 10-day forecastsClimateMarine weather Cyclones Lightning AirportsFAQ Newsletter About
Weather : Europe Africa North America South America Asia Australia-Oceania Others
Languages Contact

Hanover, Germany

Hannover Airport

latitude: 52-28N, longitude: 009-41E, elevation: 56 m


METAR: EDDV 300950Z 27018KT 230V290 9999 BKN030 16/10 Q1011 TEMPO 27020G30KT
TAF: EDDV 300500Z 3006/3106 27015G25KT 9999 SCT040 BECMG 3016/3018 27008KT

Time: 12:06 (10:06 UTC)

Current weather observation

The report was made 16 minutes ago, at 09:50 UTC
Wind 18 kt from the West, varying between Southwest and West/Northwest
Temperature 16°C
Humidity 68%
Pressure 1011 hPa
Visibility 10 km or more
Broken clouds at a height of 3000 ft

Change units

Forecast

The report was made 5 hours and 6 minutes ago, at 05:00 UTC
Forecast valid from 30 at 06 UTC to 31 at 06 UTC
Wind 15 kt from the West with gusts up to 25 kt
Visibility 10 km or more
Scattered clouds at a height of 4000 ft
Becoming
from 30 at 16 UTC to 30 at 18 UTC
Wind 8 kt from the West
The information on this site is subject to a disclaimer
Weather : Europe Africa North America South America Asia Australia-Oceania Others
Satellite images 10-day forecastsClimateMarine weather Cyclones Lightning AirportsFAQ Languages Contact Newsletter About